Terminal Aerodrome Forecast
Issued by NWS

Home | Current Version | Previous Version | Text Only | Print | Product List | Glossary On
Versions: 1 2 3 4 5 6 7 8 9 10 11 12 13 14
000
FTUS44 KOUN 281720
TAFWWR
TAF
KWWR 281720Z 2818/2918 11014G22KT P6SM OVC004
      TEMPO 2818/2822 VRB20KT 3SM TSRA BR OVC006CB
     FM282200 11014KT 3SM BR OVC006
      TEMPO 2822/2902 VRB30KT 3SM TSRA BR OVC005CB
     FM290200 06012KT 4SM -SHRA BR OVC004=

USA.gov is the U.S. government's official web portal to all federal, state and local government web resources and services.